sensor_id;sensor_type;location;lat;lon;timestamp;P1;durP1;ratioP1;P2;durP2;ratioP2
66437;SDS011;54537;47.972;11.662;2024-02-15T02:59:37;1.80;;;0.80;;
66437;SDS011;54537;47.972;11.662;2024-02-15T03:02:04;1.67;;;0.80;;
66437;SDS011;54537;47.972;11.662;2024-02-15T03:04:33;1.35;;;0.70;;
66437;SDS011;54537;47.972;11.662;2024-02-15T03:06:59;0.85;;;0.70;;
66437;SDS011;54537;47.972;11.662;2024-02-15T03:09:26;1.65;;;0.70;;
66437;SDS011;54537;47.972;11.662;2024-02-15T03:11:54;1.50;;;0.98;;
66437;SDS011;54537;47.972;11.662;2024-02-15T03:14:21;2.35;;;1.05;;
66437;SDS011;54537;47.972;11.662;2024-02-15T03:16:48;2.78;;;0.90;;
66437;SDS011;54537;47.972;11.662;2024-02-15T03:19:15;1.48;;;0.60;;
66437;SDS011;54537;47.972;11.662;2024-02-15T03:21:41;1.13;;;0.60;;
66437;SDS011;54537;47.972;11.662;2024-02-15T03:24:11;2.08;;;0.88;;
66437;SDS011;54537;47.972;11.662;2024-02-15T03:26:38;1.60;;;0.77;;
66437;SDS011;54537;47.972;11.662;2024-02-15T03:29:05;1.38;;;0.80;;
66437;SDS011;54537;47.972;11.662;2024-02-15T03:31:32;1.20;;;0.80;;
66437;SDS011;54537;47.972;11.662;2024-02-15T03:34:03;2.22;;;0.80;;
66437;SDS011;54537;47.972;11.662;2024-02-15T03:36:29;1.17;;;0.73;;
66437;SDS011;54537;47.972;11.662;2024-02-15T03:38:56;0.93;;;0.70;;
66437;SDS011;54537;47.972;11.662;2024-02-15T03:41:22;2.58;;;0.60;;
66437;SDS011;54537;47.972;11.662;2024-02-15T03:43:49;0.93;;;0.52;;
66437;SDS011;54537;47.972;11.662;2024-02-15T03:46:15;2.60;;;0.80;;
66437;SDS011;54537;47.972;11.662;2024-02-15T03:48:42;1.67;;;0.70;;
66437;SDS011;54537;47.972;11.662;2024-02-15T03:51:15;1.33;;;0.73;;
66437;SDS011;54537;47.972;11.662;2024-02-15T03:53:42;1.77;;;0.82;;
66437;SDS011;54537;47.972;11.662;2024-02-15T03:56:08;2.25;;;0.93;;
66437;SDS011;54537;47.972;11.662;2024-02-15T03:58:35;1.92;;;0.80;;
66437;SDS011;54537;47.972;11.662;2024-02-15T04:01:02;2.95;;;0.80;;
66437;SDS011;54537;47.972;11.662;2024-02-15T04:03:31;1.90;;;0.80;;
66437;SDS011;54537;47.972;11.662;2024-02-15T04:05:59;2.13;;;1.10;;
66437;SDS011;54537;47.972;11.662;2024-02-15T04:08:27;2.33;;;0.90;;
66437;SDS011;54537;47.972;11.662;2024-02-15T04:10:54;2.58;;;0.85;;
66437;SDS011;54537;47.972;11.662;2024-02-15T04:13:22;2.20;;;0.73;;
66437;SDS011;54537;47.972;11.662;2024-02-15T04:15:49;2.63;;;0.70;;
66437;SDS011;54537;47.972;11.662;2024-02-15T04:18:17;1.15;;;0.60;;
66437;SDS011;54537;47.972;11.662;2024-02-15T04:20:44;1.02;;;0.60;;
66437;SDS011;54537;47.972;11.662;2024-02-15T04:23:11;2.65;;;0.85;;
66437;SDS011;54537;47.972;11.662;2024-02-15T04:25:39;2.35;;;1.10;;
66437;SDS011;54537;47.972;11.662;2024-02-15T04:28:09;2.90;;;1.30;;
66437;SDS011;54537;47.972;11.662;2024-02-15T04:30:35;2.47;;;1.05;;
66437;SDS011;54537;47.972;11.662;2024-02-15T04:33:03;2.25;;;1.10;;
66437;SDS011;54537;47.972;11.662;2024-02-15T04:35:30;2.00;;;0.90;;
66437;SDS011;54537;47.972;11.662;2024-02-15T04:37:56;1.50;;;0.80;;
66437;SDS011;54537;47.972;11.662;2024-02-15T04:40:23;2.00;;;0.93;;
66437;SDS011;54537;47.972;11.662;2024-02-15T04:42:52;1.73;;;1.08;;
66437;SDS011;54537;47.972;11.662;2024-02-15T04:45:18;1.33;;;0.70;;
66437;SDS011;54537;47.972;11.662;2024-02-15T04:47:47;2.08;;;1.00;;
66437;SDS011;54537;47.972;11.662;2024-02-15T04:50:16;2.20;;;0.93;;
66437;SDS011;54537;47.972;11.662;2024-02-15T04:52:44;1.73;;;0.82;;
66437;SDS011;54537;47.972;11.662;2024-02-15T04:55:13;2.45;;;1.13;;
66437;SDS011;54537;47.972;11.662;2024-02-15T04:57:40;2.67;;;0.95;;
66437;SDS011;54537;47.972;11.662;2024-02-15T05:00:09;1.15;;;0.95;;
66437;SDS011;54537;47.972;11.662;2024-02-15T05:02:38;3.92;;;1.05;;
66437;SDS011;54537;47.972;11.662;2024-02-15T05:05:06;1.80;;;0.93;;
66437;SDS011;54537;47.972;11.662;2024-02-15T05:07:33;2.72;;;0.95;;
66437;SDS011;54537;47.972;11.662;2024-02-15T05:09:59;3.03;;;0.85;;
66437;SDS011;54537;47.972;11.662;2024-02-15T05:12:27;3.13;;;0.90;;
66437;SDS011;54537;47.972;11.662;2024-02-15T05:14:53;4.00;;;0.98;;
66437;SDS011;54537;47.972;11.662;2024-02-15T05:17:21;2.80;;;1.00;;
66437;SDS011;54537;47.972;11.662;2024-02-15T05:19:48;5.18;;;1.10;;
66437;SDS011;54537;47.972;11.662;2024-02-15T05:22:15;4.90;;;1.20;;
66437;SDS011;54537;47.972;11.662;2024-02-15T05:24:43;3.78;;;1.20;;
66437;SDS011;54537;47.972;11.662;2024-02-15T05:27:10;3.05;;;1.10;;
66437;SDS011;54537;47.972;11.662;2024-02-15T05:29:37;2.35;;;0.95;;
66437;SDS011;54537;47.972;11.662;2024-02-15T05:32:05;1.42;;;0.70;;
66437;SDS011;54537;47.972;11.662;2024-02-15T05:34:33;1.25;;;0.70;;
66437;SDS011;54537;47.972;11.662;2024-02-15T05:37:04;1.70;;;0.60;;
66437;SDS011;54537;47.972;11.662;2024-02-15T05:39:31;1.65;;;0.80;;
66437;SDS011;54537;47.972;11.662;2024-02-15T05:41:59;2.13;;;0.70;;
66437;SDS011;54537;47.972;11.662;2024-02-15T05:44:26;1.98;;;0.85;;
66437;SDS011;54537;47.972;11.662;2024-02-15T05:46:53;2.50;;;1.00;;
66437;SDS011;54537;47.972;11.662;2024-02-15T05:49:19;2.95;;;1.00;;
66437;SDS011;54537;47.972;11.662;2024-02-15T05:51:50;2.10;;;1.17;;
66437;SDS011;54537;47.972;11.662;2024-02-15T05:54:18;2.70;;;0.98;;
66437;SDS011;54537;47.972;11.662;2024-02-15T05:56:47;5.32;;;1.05;;
66437;SDS011;54537;47.972;11.662;2024-02-15T05:59:16;3.72;;;1.00;;
66437;SDS011;54537;47.972;11.662;2024-02-15T06:01:45;4.82;;;1.10;;
66437;SDS011;54537;47.972;11.662;2024-02-15T06:04:13;4.30;;;1.33;;
66437;SDS011;54537;47.972;11.662;2024-02-15T06:06:40;2.67;;;1.00;;
66437;SDS011;54537;47.972;11.662;2024-02-15T06:09:09;3.90;;;1.15;;
66437;SDS011;54537;47.972;11.662;2024-02-15T06:11:35;2.05;;;0.90;;
66437;SDS011;54537;47.972;11.662;2024-02-15T06:14:02;1.15;;;0.82;;
66437;SDS011;54537;47.972;11.662;2024-02-15T06:16:29;1.67;;;0.80;;
66437;SDS011;54537;47.972;11.662;2024-02-15T06:18:55;2.38;;;1.23;;
66437;SDS011;54537;47.972;11.662;2024-02-15T06:21:22;2.65;;;0.93;;
66437;SDS011;54537;47.972;11.662;2024-02-15T06:23:48;5.38;;;1.10;;
66437;SDS011;54537;47.972;11.662;2024-02-15T06:26:17;1.33;;;0.63;;
66437;SDS011;54537;47.972;11.662;2024-02-15T06:28:44;3.03;;;1.00;;
66437;SDS011;54537;47.972;11.662;2024-02-15T06:31:28;5.05;;;0.90;;
66437;SDS011;54537;47.972;11.662;2024-02-15T06:34:12;2.28;;;0.90;;
66437;SDS011;54537;47.972;11.662;2024-02-15T06:37:10;1.75;;;0.85;;
66437;SDS011;54537;47.972;11.662;2024-02-15T06:39:54;7.03;;;1.02;;
66437;SDS011;54537;47.972;11.662;2024-02-15T06:42:22;2.55;;;0.93;;
66437;SDS011;54537;47.972;11.662;2024-02-15T06:44:49;5.13;;;1.15;;
66437;SDS011;54537;47.972;11.662;2024-02-15T06:47:15;3.97;;;1.25;;
66437;SDS011;54537;47.972;11.662;2024-02-15T06:49:45;3.97;;;1.13;;
66437;SDS011;54537;47.972;11.662;2024-02-15T06:52:14;7.85;;;1.30;;
66437;SDS011;54537;47.972;11.662;2024-02-15T06:54:41;2.45;;;1.13;;
66437;SDS011;54537;47.972;11.662;2024-02-15T06:57:08;3.75;;;1.20;;
66437;SDS011;54537;47.972;11.662;2024-02-15T06:59:36;3.28;;;1.17;;
66437;SDS011;54537;47.972;11.662;2024-02-15T07:02:04;5.90;;;1.45;;
66437;SDS011;54537;47.972;11.662;2024-02-15T07:04:32;4.15;;;1.10;;
66437;SDS011;54537;47.972;11.662;2024-02-15T07:06:59;2.15;;;1.10;;
66437;SDS011;54537;47.972;11.662;2024-02-15T07:09:27;9.25;;;1.38;;
66437;SDS011;54537;47.972;11.662;2024-02-15T07:11:53;4.95;;;1.30;;
66437;SDS011;54537;47.972;11.662;2024-02-15T07:14:20;6.45;;;1.02;;
66437;SDS011;54537;47.972;11.662;2024-02-15T07:16:48;6.13;;;1.20;;
66437;SDS011;54537;47.972;11.662;2024-02-15T07:19:16;2.47;;;1.15;;
66437;SDS011;54537;47.972;11.662;2024-02-15T07:21:43;5.00;;;1.52;;
66437;SDS011;54537;47.972;11.662;2024-02-15T07:24:11;3.47;;;1.20;;
66437;SDS011;54537;47.972;11.662;2024-02-15T07:26:37;4.07;;;0.98;;
66437;SDS011;54537;47.972;11.662;2024-02-15T07:29:04;19.33;;;1.75;;
66437;SDS011;54537;47.972;11.662;2024-02-15T07:31:33;5.40;;;1.20;;
66437;SDS011;54537;47.972;11.662;2024-02-15T07:34:01;2.13;;;0.98;;
66437;SDS011;54537;47.972;11.662;2024-02-15T07:36:28;4.03;;;1.15;;
66437;SDS011;54537;47.972;11.662;2024-02-15T07:38:55;2.65;;;1.33;;
66437;SDS011;54537;47.972;11.662;2024-02-15T07:41:25;4.10;;;1.38;;
66437;SDS011;54537;47.972;11.662;2024-02-15T07:43:53;2.20;;;1.13;;
66437;SDS011;54537;47.972;11.662;2024-02-15T07:46:20;3.33;;;1.25;;
66437;SDS011;54537;47.972;11.662;2024-02-15T07:48:47;3.55;;;1.15;;
66437;SDS011;54537;47.972;11.662;2024-02-15T07:51:15;9.52;;;1.50;;
66437;SDS011;54537;47.972;11.662;2024-02-15T07:53:43;6.35;;;2.13;;
66437;SDS011;54537;47.972;11.662;2024-02-15T07:56:09;5.97;;;1.70;;
66437;SDS011;54537;47.972;11.662;2024-02-15T07:58:38;3.90;;;1.02;;
66437;SDS011;54537;47.972;11.662;2024-02-15T08:01:06;3.30;;;1.30;;
66437;SDS011;54537;47.972;11.662;2024-02-15T08:03:33;4.07;;;1.23;;
66437;SDS011;54537;47.972;11.662;2024-02-15T08:06:00;2.58;;;1.10;;
66437;SDS011;54537;47.972;11.662;2024-02-15T08:08:28;7.90;;;1.35;;
66437;SDS011;54537;47.972;11.662;2024-02-15T08:15:49;1.52;;;0.80;;
66437;SDS011;54537;47.972;11.662;2024-02-15T08:18:17;3.83;;;1.00;;
66437;SDS011;54537;47.972;11.662;2024-02-15T08:20:45;2.08;;;0.90;;
66437;SDS011;54537;47.972;11.662;2024-02-15T08:23:11;2.35;;;0.90;;
66437;SDS011;54537;47.972;11.662;2024-02-15T08:59:59;3.25;;;1.55;;
66437;SDS011;54537;47.972;11.662;2024-02-15T09:02:29;1.25;;;0.90;;
66437;SDS011;54537;47.972;11.662;2024-02-15T09:04:55;1.85;;;0.90;;
66437;SDS011;54537;47.972;11.662;2024-02-15T09:07:22;3.90;;;0.77;;
66437;SDS011;54537;47.972;11.662;2024-02-15T09:09:48;2.17;;;0.98;;
66437;SDS011;54537;47.972;11.662;2024-02-15T09:12:15;1.50;;;0.80;;
66437;SDS011;54537;47.972;11.662;2024-02-15T09:14:41;2.38;;;0.90;;
66437;SDS011;54537;47.972;11.662;2024-02-15T09:17:09;6.20;;;1.10;;
66437;SDS011;54537;47.972;11.662;2024-02-15T09:19:36;3.83;;;1.02;;
66437;SDS011;54537;47.972;11.662;2024-02-15T09:22:03;2.55;;;0.90;;
66437;SDS011;54537;47.972;11.662;2024-02-15T09:24:31;1.67;;;1.00;;
66437;SDS011;54537;47.972;11.662;2024-02-15T09:26:58;1.63;;;0.80;;
66437;SDS011;54537;47.972;11.662;2024-02-15T09:29:26;2.15;;;0.90;;
66437;SDS011;54537;47.972;11.662;2024-02-15T09:31:54;2.30;;;0.88;;
66437;SDS011;54537;47.972;11.662;2024-02-15T09:34:22;1.92;;;0.82;;
66437;SDS011;54537;47.972;11.662;2024-02-15T09:36:49;2.72;;;0.80;;
66437;SDS011;54537;47.972;11.662;2024-02-15T09:39:16;1.25;;;0.60;;
66437;SDS011;54537;47.972;11.662;2024-02-15T09:41:43;1.90;;;0.80;;
66437;SDS011;54537;47.972;11.662;2024-02-15T09:44:09;2.47;;;0.77;;
66437;SDS011;54537;47.972;11.662;2024-02-15T09:46:41;1.75;;;0.75;;
66437;SDS011;54537;47.972;11.662;2024-02-15T09:49:11;1.55;;;0.70;;
66437;SDS011;54537;47.972;11.662;2024-02-15T09:51:39;0.80;;;0.60;;
66437;SDS011;54537;47.972;11.662;2024-02-15T09:54:07;1.80;;;0.82;;
66437;SDS011;54537;47.972;11.662;2024-02-15T09:56:35;3.08;;;0.70;;
66437;SDS011;54537;47.972;11.662;2024-02-15T09:59:02;3.28;;;0.95;;
66437;SDS011;54537;47.972;11.662;2024-02-15T10:01:30;2.05;;;0.70;;
66437;SDS011;54537;47.972;11.662;2024-02-15T10:03:58;2.60;;;1.10;;
66437;SDS011;54537;47.972;11.662;2024-02-15T10:06:24;2.13;;;0.90;;
66437;SDS011;54537;47.972;11.662;2024-02-15T10:08:53;2.47;;;0.80;;
66437;SDS011;54537;47.972;11.662;2024-02-15T10:11:22;5.78;;;0.93;;
66437;SDS011;54537;47.972;11.662;2024-02-15T10:13:48;1.42;;;0.80;;
66437;SDS011;54537;47.972;11.662;2024-02-15T10:16:15;0.98;;;0.70;;
66437;SDS011;54537;47.972;11.662;2024-02-15T10:18:43;3.10;;;0.80;;
66437;SDS011;54537;47.972;11.662;2024-02-15T10:21:10;1.65;;;0.82;;
66437;SDS011;54537;47.972;11.662;2024-02-15T10:23:57;3.05;;;0.90;;
66437;SDS011;54537;47.972;11.662;2024-02-15T10:26:30;2.90;;;0.82;;
66437;SDS011;54537;47.972;11.662;2024-02-15T10:29:04;0.98;;;0.75;;
66437;SDS011;54537;47.972;11.662;2024-02-15T10:31:33;1.80;;;0.73;;
66437;SDS011;54537;47.972;11.662;2024-02-15T10:34:02;1.75;;;0.70;;
66437;SDS011;54537;47.972;11.662;2024-02-15T10:36:30;2.33;;;0.90;;
66437;SDS011;54537;47.972;11.662;2024-02-15T10:39:11;1.58;;;0.70;;
66437;SDS011;54537;47.972;11.662;2024-02-15T10:41:42;2.28;;;0.73;;
66437;SDS011;54537;47.972;11.662;2024-02-15T10:44:10;2.80;;;1.10;;
66437;SDS011;54537;47.972;11.662;2024-02-15T10:46:39;1.48;;;0.70;;
66437;SDS011;54537;47.972;11.662;2024-02-15T10:49:06;1.45;;;0.90;;
66437;SDS011;54537;47.972;11.662;2024-02-15T10:51:33;2.28;;;0.75;;
66437;SDS011;54537;47.972;11.662;2024-02-15T10:54:01;1.90;;;0.73;;
66437;SDS011;54537;47.972;11.662;2024-02-15T10:56:33;1.85;;;0.80;;
66437;SDS011;54537;47.972;11.662;2024-02-15T10:59:04;0.85;;;0.60;;
66437;SDS011;54537;47.972;11.662;2024-02-15T11:01:38;1.23;;;0.70;;
66437;SDS011;54537;47.972;11.662;2024-02-15T11:04:07;0.68;;;0.60;;
66437;SDS011;54537;47.972;11.662;2024-02-15T11:06:35;0.77;;;0.68;;
66437;SDS011;54537;47.972;11.662;2024-02-15T11:09:01;3.17;;;0.70;;
66437;SDS011;54537;47.972;11.662;2024-02-15T11:11:32;1.42;;;0.80;;
66437;SDS011;54537;47.972;11.662;2024-02-15T11:16:51;1.40;;;0.70;;
66437;SDS011;54537;47.972;11.662;2024-02-15T11:19:39;2.60;;;0.52;;
66437;SDS011;54537;47.972;11.662;2024-02-15T11:22:08;2.13;;;0.85;;
66437;SDS011;54537;47.972;11.662;2024-02-15T11:24:36;3.08;;;0.90;;
66437;SDS011;54537;47.972;11.662;2024-02-15T11:27:05;1.05;;;0.70;;
66437;SDS011;54537;47.972;11.662;2024-02-15T11:29:48;2.47;;;0.85;;
66437;SDS011;54537;47.972;11.662;2024-02-15T11:35:04;1.38;;;0.70;;
66437;SDS011;54537;47.972;11.662;2024-02-15T11:40:28;1.48;;;0.70;;
66437;SDS011;54537;47.972;11.662;2024-02-15T11:42:56;2.15;;;0.90;;
66437;SDS011;54537;47.972;11.662;2024-02-15T11:45:24;1.52;;;0.75;;
66437;SDS011;54537;47.972;11.662;2024-02-15T11:47:52;3.80;;;0.80;;
66437;SDS011;54537;47.972;11.662;2024-02-15T11:50:21;1.75;;;0.90;;
66437;SDS011;54537;47.972;11.662;2024-02-15T11:52:48;2.05;;;1.00;;
66437;SDS011;54537;47.972;11.662;2024-02-15T11:55:17;2.10;;;0.73;;
66437;SDS011;54537;47.972;11.662;2024-02-15T11:57:53;1.02;;;0.70;;
66437;SDS011;54537;47.972;11.662;2024-02-15T12:00:29;3.92;;;0.98;;
66437;SDS011;54537;47.972;11.662;2024-02-15T12:03:13;3.47;;;1.00;;
66437;SDS011;54537;47.972;11.662;2024-02-15T12:05:58;1.15;;;0.82;;
66437;SDS011;54537;47.972;11.662;2024-02-15T12:08:43;2.20;;;0.80;;
66437;SDS011;54537;47.972;11.662;2024-02-15T12:11:28;2.15;;;0.90;;
66437;SDS011;54537;47.972;11.662;2024-02-15T12:14:12;3.08;;;0.88;;
66437;SDS011;54537;47.972;11.662;2024-02-15T12:17:04;2.85;;;1.05;;
66437;SDS011;54537;47.972;11.662;2024-02-15T12:19:49;2.92;;;0.80;;
66437;SDS011;54537;47.972;11.662;2024-02-15T12:22:19;2.55;;;0.88;;
66437;SDS011;54537;47.972;11.662;2024-02-15T12:24:53;3.20;;;0.93;;
66437;SDS011;54537;47.972;11.662;2024-02-15T12:27:21;1.95;;;0.80;;
66437;SDS011;54537;47.972;11.662;2024-02-15T12:29:52;2.20;;;1.02;;
66437;SDS011;54537;47.972;11.662;2024-02-15T12:32:21;1.30;;;0.90;;
66437;SDS011;54537;47.972;11.662;2024-02-15T12:34:48;1.67;;;0.95;;
66437;SDS011;54537;47.972;11.662;2024-02-15T12:37:14;3.40;;;0.85;;
66437;SDS011;54537;47.972;11.662;2024-02-15T12:39:45;8.25;;;1.00;;
66437;SDS011;54537;47.972;11.662;2024-02-15T12:42:12;1.27;;;1.00;;
66437;SDS011;54537;47.972;11.662;2024-02-15T12:44:41;1.60;;;0.90;;
66437;SDS011;54537;47.972;11.662;2024-02-15T12:47:17;13.63;;;1.10;;
66437;SDS011;54537;47.972;11.662;2024-02-15T12:49:45;2.03;;;1.10;;
66437;SDS011;54537;47.972;11.662;2024-02-15T12:55:12;10.07;;;1.17;;
66437;SDS011;54537;47.972;11.662;2024-02-15T12:57:41;2.08;;;0.88;;
66437;SDS011;54537;47.972;11.662;2024-02-15T13:00:10;3.13;;;0.90;;
66437;SDS011;54537;47.972;11.662;2024-02-15T13:02:42;1.10;;;0.90;;
66437;SDS011;54537;47.972;11.662;2024-02-15T13:05:11;3.92;;;1.25;;
66437;SDS011;54537;47.972;11.662;2024-02-15T13:07:38;1.60;;;0.82;;
66437;SDS011;54537;47.972;11.662;2024-02-15T13:10:05;3.90;;;1.00;;
66437;SDS011;54537;47.972;11.662;2024-02-15T13:12:33;1.52;;;0.70;;
66437;SDS011;54537;47.972;11.662;2024-02-15T13:15:01;1.77;;;0.82;;
66437;SDS011;54537;47.972;11.662;2024-02-15T13:17:29;2.78;;;0.85;;
66437;SDS011;54537;47.972;11.662;2024-02-15T13:19:56;1.42;;;0.60;;
66437;SDS011;54537;47.972;11.662;2024-02-15T13:22:30;1.13;;;0.60;;
66437;SDS011;54537;47.972;11.662;2024-02-15T13:24:57;2.17;;;1.00;;
66437;SDS011;54537;47.972;11.662;2024-02-15T13:27:25;1.70;;;0.70;;
66437;SDS011;54537;47.972;11.662;2024-02-15T13:29:51;1.58;;;0.80;;
66437;SDS011;54537;47.972;11.662;2024-02-15T13:32:18;4.80;;;0.88;;
66437;SDS011;54537;47.972;11.662;2024-02-15T13:34:46;1.67;;;0.95;;
66437;SDS011;54537;47.972;11.662;2024-02-15T13:37:16;1.50;;;0.70;;
66437;SDS011;54537;47.972;11.662;2024-02-15T13:39:46;2.05;;;0.80;;
66437;SDS011;54537;47.972;11.662;2024-02-15T13:42:13;2.72;;;1.00;;
66437;SDS011;54537;47.972;11.662;2024-02-15T13:44:39;1.60;;;0.80;;
66437;SDS011;54537;47.972;11.662;2024-02-15T13:47:06;1.30;;;0.93;;
66437;SDS011;54537;47.972;11.662;2024-02-15T13:49:32;2.25;;;0.77;;
66437;SDS011;54537;47.972;11.662;2024-02-15T13:51:59;3.05;;;1.00;;
66437;SDS011;54537;47.972;11.662;2024-02-15T13:54:28;1.20;;;0.90;;
66437;SDS011;54537;47.972;11.662;2024-02-15T13:56:56;3.22;;;1.00;;
66437;SDS011;54537;47.972;11.662;2024-02-15T13:59:22;2.05;;;0.90;;
66437;SDS011;54537;47.972;11.662;2024-02-15T14:01:49;2.28;;;0.80;;
66437;SDS011;54537;47.972;11.662;2024-02-15T14:04:15;2.53;;;1.20;;
66437;SDS011;54537;47.972;11.662;2024-02-15T14:06:42;3.28;;;1.00;;
66437;SDS011;54537;47.972;11.662;2024-02-15T14:09:09;3.97;;;1.02;;
66437;SDS011;54537;47.972;11.662;2024-02-15T14:11:36;2.00;;;0.90;;
66437;SDS011;54537;47.972;11.662;2024-02-15T14:14:05;2.22;;;0.90;;
66437;SDS011;54537;47.972;11.662;2024-02-15T14:16:30;1.10;;;0.70;;
66437;SDS011;54537;47.972;11.662;2024-02-15T14:18:58;3.90;;;1.10;;
66437;SDS011;54537;47.972;11.662;2024-02-15T14:21:24;1.98;;;0.90;;
66437;SDS011;54537;47.972;11.662;2024-02-15T14:23:51;2.63;;;0.90;;
66437;SDS011;54537;47.972;11.662;2024-02-15T14:26:18;1.65;;;0.98;;
66437;SDS011;54537;47.972;11.662;2024-02-15T14:28:47;3.25;;;0.98;;
66437;SDS011;54537;47.972;11.662;2024-02-15T14:31:17;1.92;;;0.80;;
66437;SDS011;54537;47.972;11.662;2024-02-15T14:34:01;1.63;;;0.80;;
66437;SDS011;54537;47.972;11.662;2024-02-15T14:36:28;4.43;;;1.27;;
66437;SDS011;54537;47.972;11.662;2024-02-15T14:38:55;2.85;;;0.90;;
66437;SDS011;54537;47.972;11.662;2024-02-15T14:41:21;2.95;;;1.00;;
66437;SDS011;54537;47.972;11.662;2024-02-15T14:43:48;2.30;;;0.75;;
66437;SDS011;54537;47.972;11.662;2024-02-15T14:46:17;2.33;;;0.95;;
66437;SDS011;54537;47.972;11.662;2024-02-15T14:48:43;2.75;;;1.20;;
66437;SDS011;54537;47.972;11.662;2024-02-15T14:51:14;1.48;;;0.80;;
66437;SDS011;54537;47.972;11.662;2024-02-15T14:53:41;2.47;;;1.20;;
66437;SDS011;54537;47.972;11.662;2024-02-15T14:56:09;1.77;;;1.00;;
66437;SDS011;54537;47.972;11.662;2024-02-15T14:58:35;1.98;;;0.90;;
66437;SDS011;54537;47.972;11.662;2024-02-15T15:01:02;2.75;;;1.10;;
66437;SDS011;54537;47.972;11.662;2024-02-15T15:03:31;3.53;;;1.50;;
66437;SDS011;54537;47.972;11.662;2024-02-15T15:05:58;4.65;;;1.00;;
66437;SDS011;54537;47.972;11.662;2024-02-15T15:08:42;8.23;;;1.20;;
66437;SDS011;54537;47.972;11.662;2024-02-15T15:11:26;3.63;;;1.13;;
66437;SDS011;54537;47.972;11.662;2024-02-15T15:14:10;2.83;;;1.20;;
66437;SDS011;54537;47.972;11.662;2024-02-15T15:16:37;3.38;;;1.48;;
66437;SDS011;54537;47.972;11.662;2024-02-15T15:19:05;3.15;;;1.23;;
66437;SDS011;54537;47.972;11.662;2024-02-15T15:21:32;3.00;;;1.00;;
66437;SDS011;54537;47.972;11.662;2024-02-15T15:23:59;3.08;;;1.20;;
66437;SDS011;54537;47.972;11.662;2024-02-15T15:26:26;5.90;;;1.38;;
66437;SDS011;54537;47.972;11.662;2024-02-15T15:28:52;3.40;;;1.60;;
66437;SDS011;54537;47.972;11.662;2024-02-15T15:31:20;3.50;;;1.50;;
66437;SDS011;54537;47.972;11.662;2024-02-15T15:33:46;3.45;;;1.10;;
66437;SDS011;54537;47.972;11.662;2024-02-15T15:36:15;3.65;;;1.45;;
66437;SDS011;54537;47.972;11.662;2024-02-15T15:38:42;3.60;;;1.20;;
66437;SDS011;54537;47.972;11.662;2024-02-15T15:41:09;2.35;;;1.13;;
66437;SDS011;54537;47.972;11.662;2024-02-15T15:43:37;3.95;;;1.38;;
66437;SDS011;54537;47.972;11.662;2024-02-15T15:46:04;5.50;;;1.30;;
66437;SDS011;54537;47.972;11.662;2024-02-15T15:48:30;2.33;;;1.10;;
66437;SDS011;54537;47.972;11.662;2024-02-15T15:50:57;2.45;;;1.60;;
66437;SDS011;54537;47.972;11.662;2024-02-15T15:53:25;3.03;;;1.25;;
66437;SDS011;54537;47.972;11.662;2024-02-15T15:55:52;6.10;;;1.40;;
66437;SDS011;54537;47.972;11.662;2024-02-15T15:58:19;4.40;;;1.30;;
66437;SDS011;54537;47.972;11.662;2024-02-15T16:00:48;4.63;;;1.30;;
66437;SDS011;54537;47.972;11.662;2024-02-15T16:03:14;5.53;;;1.50;;
66437;SDS011;54537;47.972;11.662;2024-02-15T16:05:41;5.68;;;1.52;;
66437;SDS011;54537;47.972;11.662;2024-02-15T16:08:07;5.10;;;1.40;;
66437;SDS011;54537;47.972;11.662;2024-02-15T16:10:35;3.42;;;1.50;;
66437;SDS011;54537;47.972;11.662;2024-02-15T16:13:03;3.35;;;1.38;;
66437;SDS011;54537;47.972;11.662;2024-02-15T16:15:31;4.80;;;1.67;;
66437;SDS011;54537;47.972;11.662;2024-02-15T16:17:57;2.60;;;1.40;;
66437;SDS011;54537;47.972;11.662;2024-02-15T16:20:25;2.85;;;1.40;;
66437;SDS011;54537;47.972;11.662;2024-02-15T16:22:51;3.75;;;1.50;;
66437;SDS011;54537;47.972;11.662;2024-02-15T16:25:18;5.32;;;1.70;;
66437;SDS011;54537;47.972;11.662;2024-02-15T16:27:46;4.80;;;1.40;;
66437;SDS011;54537;47.972;11.662;2024-02-15T16:30:12;3.28;;;1.20;;
66437;SDS011;54537;47.972;11.662;2024-02-15T16:32:39;2.95;;;1.40;;
66437;SDS011;54537;47.972;11.662;2024-02-15T16:35:06;3.15;;;1.30;;
66437;SDS011;54537;47.972;11.662;2024-02-15T16:37:36;4.00;;;1.63;;
66437;SDS011;54537;47.972;11.662;2024-02-15T16:40:04;6.57;;;1.20;;
66437;SDS011;54537;47.972;11.662;2024-02-15T16:42:32;3.97;;;1.40;;
66437;SDS011;54537;47.972;11.662;2024-02-15T16:45:00;3.78;;;1.80;;
66437;SDS011;54537;47.972;11.662;2024-02-15T16:47:27;11.85;;;1.60;;
66437;SDS011;54537;47.972;11.662;2024-02-15T16:49:53;3.53;;;1.38;;
66437;SDS011;54537;47.972;11.662;2024-02-15T16:52:20;4.05;;;1.63;;
66437;SDS011;54537;47.972;11.662;2024-02-15T16:54:46;6.32;;;1.70;;
66437;SDS011;54537;47.972;11.662;2024-02-15T16:57:13;4.45;;;1.60;;
66437;SDS011;54537;47.972;11.662;2024-02-15T16:59:39;3.25;;;1.50;;
66437;SDS011;54537;47.972;11.662;2024-02-15T17:02:07;4.93;;;1.42;;
66437;SDS011;54537;47.972;11.662;2024-02-15T17:04:34;3.38;;;1.35;;
66437;SDS011;54537;47.972;11.662;2024-02-15T17:07:00;3.42;;;1.38;;
66437;SDS011;54537;47.972;11.662;2024-02-15T17:09:27;4.03;;;1.35;;
66437;SDS011;54537;47.972;11.662;2024-02-15T17:11:53;3.45;;;1.33;;
66437;SDS011;54537;47.972;11.662;2024-02-15T17:14:20;3.28;;;1.38;;
66437;SDS011;54537;47.972;11.662;2024-02-15T17:16:47;3.83;;;1.58;;
66437;SDS011;54537;47.972;11.662;2024-02-15T17:19:16;3.03;;;1.40;;
66437;SDS011;54537;47.972;11.662;2024-02-15T17:21:43;4.90;;;1.40;;
66437;SDS011;54537;47.972;11.662;2024-02-15T17:24:10;6.43;;;1.65;;
66437;SDS011;54537;47.972;11.662;2024-02-15T17:26:41;5.80;;;1.52;;
66437;SDS011;54537;47.972;11.662;2024-02-15T17:29:07;5.43;;;1.77;;
66437;SDS011;54537;47.972;11.662;2024-02-15T17:31:36;9.30;;;1.67;;
66437;SDS011;54537;47.972;11.662;2024-02-15T17:34:02;3.83;;;1.35;;
66437;SDS011;54537;47.972;11.662;2024-02-15T17:36:32;9.93;;;1.60;;
66437;SDS011;54537;47.972;11.662;2024-02-15T17:38:59;2.72;;;1.35;;
66437;SDS011;54537;47.972;11.662;2024-02-15T17:41:26;2.78;;;1.20;;
66437;SDS011;54537;47.972;11.662;2024-02-15T17:43:53;3.83;;;1.30;;
66437;SDS011;54537;47.972;11.662;2024-02-15T17:46:24;7.57;;;1.63;;
66437;SDS011;54537;47.972;11.662;2024-02-15T17:48:52;2.67;;;1.55;;
66437;SDS011;54537;47.972;11.662;2024-02-15T17:51:18;6.13;;;1.80;;
66437;SDS011;54537;47.972;11.662;2024-02-15T17:53:46;3.72;;;1.42;;
66437;SDS011;54537;47.972;11.662;2024-02-15T17:56:13;24.15;;;8.02;;
66437;SDS011;54537;47.972;11.662;2024-02-15T17:58:40;26.80;;;8.07;;
66437;SDS011;54537;47.972;11.662;2024-02-15T18:01:07;11.98;;;4.43;;
66437;SDS011;54537;47.972;11.662;2024-02-15T18:03:33;4.45;;;1.42;;
66437;SDS011;54537;47.972;11.662;2024-02-15T18:06:00;4.35;;;1.45;;
66437;SDS011;54537;47.972;11.662;2024-02-15T18:08:26;4.30;;;1.48;;
66437;SDS011;54537;47.972;11.662;2024-02-15T18:10:54;4.93;;;1.38;;
66437;SDS011;54537;47.972;11.662;2024-02-15T18:13:25;5.30;;;1.40;;
66437;SDS011;54537;47.972;11.662;2024-02-15T18:15:53;4.55;;;1.77;;
66437;SDS011;54537;47.972;11.662;2024-02-15T18:18:19;5.22;;;1.40;;
66437;SDS011;54537;47.972;11.662;2024-02-15T18:20:47;5.72;;;1.45;;
66437;SDS011;54537;47.972;11.662;2024-02-15T18:23:14;4.60;;;1.88;;
66437;SDS011;54537;47.972;11.662;2024-02-15T18:25:43;6.03;;;1.67;;
66437;SDS011;54537;47.972;11.662;2024-02-15T18:28:11;8.98;;;2.13;;
66437;SDS011;54537;47.972;11.662;2024-02-15T18:30:39;13.25;;;3.40;;